Rochdale Village, New York
Current Conditions -  °F | °C
As of 7:51 AM on Thursday 30 Oct 2014 (Local Time) from KJFK Reporting Station
Haze Haze  
Wind Chill: 47°   Ceiling: Unl
Heat Index: 49°   Visibility: 6mi
Dew Point: 45°   Wind: 6mph
Humidity: 86%   Direction: 270°W
Pressure: 29.99"   Gusts: NA
Location:  40.6565°N, 73.7829°W
Report Text: KJFK 301151Z 27005KT 6SM BR FEW007 SCT023 SCT130 SCT250 09/07 A2999 RMK AO2 SLP153 70003 T00940072 10111 20078 51013
Loading
Personal Weather Stations






























Interactive Weather Map
Tropical Storm Tracking
New forecast layout! Learn more

10-Day Weather Forecast

Advertisements
Track Severe Weather on mobile